John F Kennedy International Airport
KJFK : now visible

Aeroporto :











RITROVATECI SU...

 
LOGIN :

Iscrizione | Disclaimer

   EN    FR    IT 

 









Sommario :    VFR   VFR Marginale   IFR   IFR Intensivo   IFR Molto Intensivo
Visibilità : 
Base nubi : 
>= 8 km
>= 3000ft
5 / 8 km
1000 / 3000 ft
1500m / 5 km
500 / 1000 ft
800 / 1500m
200 / 500 ft
< 800m
< 200 ft
Simboli :   Temporali  Nebbia  Neve Forte  Precipitazioni Forti  Vento > 20 kt






- Altitudine del aeroporto : 13 ft
- Codice IATA : JFK


KJFK - John F Kennedy International

ULTIMO METAR :
  • 131651Z 33015KT 10SM FEW055 FEW250 01/M13 A3034 RMK AO2 SLP275 T00061128

METARs OBSOLETI :
  • 131551Z 35018G27KT 10SM FEW055 M01/M13 A3034 RMK AO2 PK WND 34028/1518 SLP272 T10061128
  • 131451Z 33019G27KT 10SM FEW055 M02/M13 A3034 RMK AO2 PK WND 33030/1419 SLP272 T10171128 51018

TAF KJFK
Valido dal 13 a 15 ore il 14 a 18 ore UTC


131437Z 1315/1418 32016G26KT P6SM FEW060
FM131700 32012G21KT P6SM SKC
FM132000 33010KT P6SM SKC
FM140300 VRB04KT P6SM FEW250
FM141400 18008KT P6SM SCT050 SCT250



MetMap, La meteo Aeronautica in un colpo d'occhio ! - Copyright ORBIFLY Dicembre 2007 - Disclaimer

ORBIFLY MET'MAP TEAM :

Programmazione e sviluppo : Alexandra Zaïnal
Concezione e sviluppo : Baudouin d'Aumeries
Co-Programmazione e sviluppo : Marc-Olivier Méhu
Supporto tecnico e logistico : Manuel Goepfert
Aiuto per la traduzione : Arnaldo La Scala

Contatto : metmap@orbifly.com




FONTI E CREDITI :

   NOAA       Earth
Advisory